createdAt,value
2023-01-10T00:02:28.560Z,79.77
2023-01-10T00:05:10.075Z,79.21
2023-01-10T00:07:58.098Z,79.69
2023-01-10T00:10:47.734Z,79.48
2023-01-10T00:14:06.732Z,79.38
2023-01-10T00:16:56.127Z,79.13
2023-01-10T00:20:01.248Z,79.13
2023-01-10T00:23:00.341Z,79.19
2023-01-10T00:25:56.105Z,79.33
2023-01-10T00:28:45.384Z,79.47
2023-01-10T00:31:19.218Z,79.23
2023-01-10T00:33:53.614Z,79.47
2023-01-10T00:36:30.696Z,79.22
2023-01-10T00:39:08.194Z,79.40
2023-01-10T00:42:02.161Z,79.25
2023-01-10T00:44:34.110Z,79.46
2023-01-10T00:47:06.675Z,79.43
2023-01-10T00:49:38.657Z,79.21
2023-01-10T00:52:10.853Z,79.39
2023-01-10T00:54:42.860Z,79.32
2023-01-10T00:57:16.601Z,79.40
2023-01-10T00:59:51.531Z,79.25
2023-01-10T01:02:23.876Z,79.38
2023-01-10T01:04:56.190Z,79.01
2023-01-10T01:07:28.457Z,79.23
2023-01-10T01:10:32.670Z,78.98
2023-01-10T01:13:10.598Z,79.46
2023-01-10T01:15:50.908Z,79.26
2023-01-10T01:18:23.252Z,78.94
2023-01-10T01:20:58.823Z,79.23
2023-01-10T01:23:35.217Z,79.28
2023-01-10T01:26:07.389Z,79.47
2023-01-10T01:28:41.678Z,79.73
2023-01-10T01:31:13.896Z,79.38
2023-01-10T01:33:49.997Z,79.28
2023-01-10T01:36:26.733Z,79.65
2023-01-10T01:39:04.428Z,79.29
2023-01-10T01:41:57.544Z,79.53
2023-01-10T01:44:41.203Z,79.55
2023-01-10T01:47:32.872Z,79.48
2023-01-10T01:50:06.046Z,79.73
2023-01-10T01:52:38.046Z,80.34
2023-01-10T01:55:10.853Z,80.05
2023-01-10T01:57:49.410Z,80.08
2023-01-10T02:00:21.700Z,80.29
2023-01-10T02:03:03.429Z,80.22
2023-01-10T02:05:39.496Z,80.40
2023-01-10T02:08:15.691Z,80.99
2023-01-10T02:10:55.745Z,80.72
2023-01-10T02:13:31.659Z,80.78
2023-01-10T02:16:09.572Z,80.66
2023-01-10T02:18:44.425Z,80.67
2023-01-10T02:21:43.820Z,80.91
2023-01-10T02:24:18.772Z,80.71
2023-01-10T02:27:12.560Z,80.58
2023-01-10T02:29:50.479Z,80.70
2023-01-10T02:33:07.461Z,80.27
2023-01-10T02:35:57.094Z,80.21
2023-01-10T02:38:50.392Z,80.16
2023-01-10T02:41:51.562Z,79.91
2023-01-10T02:44:46.289Z,79.83
2023-01-10T02:47:18.243Z,80.19
2023-01-10T02:49:52.423Z,80.05
2023-01-10T02:52:31.469Z,80.09
2023-01-10T02:55:04.284Z,79.70
2023-01-10T02:58:09.926Z,79.75
2023-01-10T03:01:03.030Z,80.02
2023-01-10T03:04:05.489Z,79.95
2023-01-10T03:06:52.868Z,79.59
2023-01-10T03:09:35.663Z,80.07
2023-01-10T03:12:15.226Z,80.24
2023-01-10T03:14:48.901Z,80.31
2023-01-10T03:17:23.061Z,80.43
2023-01-10T03:20:04.957Z,79.61
2023-01-10T03:22:40.980Z,80.39
2023-01-10T03:25:21.020Z,80.31
2023-01-10T03:28:09.250Z,79.96
2023-01-10T03:31:03.101Z,80.06
2023-01-10T03:33:36.424Z,80.14
2023-01-10T03:36:35.417Z,79.96
2023-01-10T03:39:22.247Z,79.71
2023-01-10T03:42:25.757Z,79.41
2023-01-10T03:45:09.545Z,79.63
2023-01-10T03:47:47.101Z,79.26
2023-01-10T03:50:23.088Z,79.20
2023-01-10T03:52:57.067Z,79.21
2023-01-10T03:55:33.376Z,79.21
2023-01-10T03:58:05.481Z,79.55
2023-01-10T04:00:37.740Z,80.12
2023-01-10T04:03:10.459Z,79.71
2023-01-10T04:05:43.043Z,79.55
2023-01-10T04:08:15.095Z,79.57
2023-01-10T04:10:57.674Z,80.21
2023-01-10T04:13:29.784Z,80.21
2023-01-10T04:16:01.859Z,80.70
2023-01-10T04:18:36.012Z,80.33
2023-01-10T04:21:10.330Z,80.32
2023-01-10T04:23:42.482Z,80.73
2023-01-10T04:26:17.741Z,80.98
2023-01-10T04:28:49.983Z,80.94
2023-01-10T04:31:23.370Z,80.69
2023-01-10T04:33:55.561Z,80.27
2023-01-10T04:36:46.567Z,80.31
2023-01-10T04:39:18.743Z,80.06
2023-01-10T04:41:50.821Z,80.24
2023-01-10T04:44:29.371Z,80.08
2023-01-10T04:47:01.637Z,79.69
2023-01-10T04:49:33.968Z,79.79
2023-01-10T04:52:10.872Z,79.62
2023-01-10T04:54:42.938Z,79.30
2023-01-10T04:57:15.060Z,79.54
2023-01-10T04:59:47.271Z,79.61
2023-01-10T05:02:19.475Z,79.94
2023-01-10T05:04:56.848Z,79.81
2023-01-10T05:07:29.048Z,80.03
2023-01-10T05:10:02.457Z,80.42
2023-01-10T05:12:38.056Z,80.19
2023-01-10T05:15:10.548Z,80.14
2023-01-10T05:17:45.948Z,80.47
2023-01-10T05:20:24.613Z,80.78
2023-01-10T05:22:56.799Z,80.47
2023-01-10T05:25:32.516Z,80.71
2023-01-10T05:28:10.312Z,81.10
2023-01-10T05:30:48.619Z,80.96
2023-01-10T05:33:26.093Z,80.69
2023-01-10T05:36:07.106Z,80.79
2023-01-10T05:38:39.569Z,80.98
2023-01-10T05:41:21.648Z,80.91
2023-01-10T05:43:56.877Z,80.81
2023-01-10T05:46:59.015Z,80.59
2023-01-10T05:49:32.068Z,80.79
2023-01-10T05:52:15.672Z,80.38
2023-01-10T05:54:47.747Z,80.55
2023-01-10T05:57:19.795Z,80.37
2023-01-10T06:00:12.734Z,80.26
2023-01-10T06:02:45.066Z,80.42
2023-01-10T06:05:20.374Z,80.49
2023-01-10T06:07:52.595Z,80.24
2023-01-10T06:10:30.250Z,80.92
2023-01-10T06:13:02.500Z,80.88
2023-01-10T06:15:39.089Z,80.65
2023-01-10T06:18:12.387Z,80.76
2023-01-10T06:20:44.795Z,81.13
2023-01-10T06:23:17.033Z,80.65
2023-01-10T06:25:49.225Z,80.21
2023-01-10T06:28:21.165Z,80.12
2023-01-10T06:30:55.460Z,79.95
2023-01-10T06:33:29.488Z,80.30
2023-01-10T06:36:02.148Z,79.96
2023-01-10T06:38:37.234Z,79.92
2023-01-10T06:41:15.161Z,79.91
2023-01-10T06:43:49.384Z,80.22
2023-01-10T06:46:21.932Z,79.80
2023-01-10T06:48:56.962Z,79.84
2023-01-10T06:51:32.082Z,80.05
2023-01-10T06:54:07.063Z,80.16
2023-01-10T06:56:39.337Z,80.07
2023-01-10T06:59:11.595Z,79.99
2023-01-10T07:01:43.899Z,79.79
2023-01-10T07:04:27.251Z,79.86
2023-01-10T07:06:59.317Z,80.71
2023-01-10T07:09:31.441Z,80.09
2023-01-10T07:12:03.604Z,80.24
2023-01-10T07:14:44.072Z,80.37
2023-01-10T07:17:19.200Z,80.33
2023-01-10T07:19:56.738Z,80.28
2023-01-10T07:22:28.933Z,80.42
2023-01-10T07:25:00.972Z,80.63
2023-01-10T07:27:36.229Z,80.31
2023-01-10T07:30:09.064Z,80.37
2023-01-10T07:32:41.034Z,80.49
2023-01-10T07:35:13.116Z,80.55
2023-01-10T07:37:45.145Z,80.97
2023-01-10T07:40:17.669Z,80.79
2023-01-10T07:42:50.489Z,80.70
2023-01-10T07:45:22.523Z,80.83
2023-01-10T07:48:08.556Z,80.49
2023-01-10T07:50:40.889Z,80.27
2023-01-10T07:53:12.980Z,80.52
2023-01-10T07:55:52.603Z,80.57
2023-01-10T07:58:27.343Z,80.58
2023-01-10T08:01:08.817Z,80.77
2023-01-10T08:03:41.254Z,80.60
2023-01-10T08:06:18.566Z,81.08
2023-01-10T08:09:06.311Z,81.29
2023-01-10T08:11:44.905Z,81.13
2023-01-10T08:14:16.990Z,81.22
2023-01-10T08:16:49.172Z,81.03
2023-01-10T08:19:21.177Z,81.52
2023-01-10T08:21:56.745Z,81.35
2023-01-10T08:24:34.468Z,81.03
2023-01-10T08:27:06.687Z,81.00
2023-01-10T08:29:38.970Z,80.83
2023-01-10T08:32:13.042Z,80.67
2023-01-10T08:34:45.216Z,80.61
2023-01-10T08:37:38.269Z,81.41
2023-01-10T08:40:10.974Z,81.03
2023-01-10T08:42:43.267Z,81.02
2023-01-10T08:45:15.788Z,81.14
2023-01-10T08:48:05.947Z,81.17
2023-01-10T08:50:38.126Z,80.95
2023-01-10T08:53:11.393Z,81.13
2023-01-10T08:55:43.448Z,80.95
2023-01-10T08:58:15.784Z,80.78
2023-01-10T09:00:50.579Z,80.63
2023-01-10T09:03:22.751Z,80.62
2023-01-10T09:06:11.692Z,80.75
2023-01-10T09:08:54.784Z,80.41
2023-01-10T09:11:26.778Z,80.54
2023-01-10T09:14:01.909Z,80.28
2023-01-10T09:16:34.170Z,80.32
2023-01-10T09:19:09.408Z,80.15
2023-01-10T09:22:04.072Z,79.89
2023-01-10T09:24:37.884Z,79.51
2023-01-10T09:27:15.009Z,79.77
2023-01-10T09:29:58.292Z,79.37
2023-01-10T09:32:33.272Z,79.79
2023-01-10T09:35:18.928Z,79.67
2023-01-10T09:37:54.132Z,79.24
2023-01-10T09:40:59.056Z,79.73
2023-01-10T09:43:49.546Z,80.04
2023-01-10T09:46:40.467Z,80.12
2023-01-10T09:49:44.208Z,80.27
2023-01-10T09:52:40.422Z,80.11
2023-01-10T09:55:25.642Z,80.20
2023-01-10T09:58:02.066Z,80.43
2023-01-10T10:00:45.495Z,80.21
2023-01-10T10:03:40.974Z,80.84
2023-01-10T10:06:15.062Z,80.57
2023-01-10T10:08:47.781Z,80.83
2023-01-10T10:11:25.997Z,81.04
2023-01-10T10:14:04.211Z,80.76
2023-01-10T10:17:11.659Z,80.77
2023-01-10T10:20:14.767Z,80.71
2023-01-10T10:23:20.314Z,80.31
2023-01-10T10:26:05.091Z,80.86
2023-01-10T10:28:53.693Z,80.97
2023-01-10T10:32:04.350Z,80.97
2023-01-10T10:34:44.119Z,80.63
2023-01-10T10:37:19.154Z,80.68
2023-01-10T10:40:00.581Z,80.70
2023-01-10T10:42:39.475Z,80.43
2023-01-10T10:45:39.774Z,80.31
2023-01-10T10:48:18.376Z,80.57
2023-01-10T10:51:02.964Z,80.39
2023-01-10T10:53:36.148Z,80.51
2023-01-10T10:56:14.506Z,80.50
2023-01-10T10:58:50.353Z,80.75
2023-01-10T11:01:25.560Z,80.66
2023-01-10T11:04:06.556Z,80.26
2023-01-10T11:06:42.016Z,80.11
2023-01-10T11:09:15.387Z,79.79
2023-01-10T11:11:50.863Z,80.19
2023-01-10T11:14:47.768Z,80.02
2023-01-10T11:17:28.611Z,79.51
2023-01-10T11:20:05.604Z,80.02
2023-01-10T11:22:44.988Z,80.09
2023-01-10T11:25:19.185Z,80.10
2023-01-10T11:27:54.538Z,80.50
2023-01-10T11:30:30.590Z,80.29
2023-01-10T11:33:06.666Z,80.58
2023-01-10T11:35:41.789Z,80.33
2023-01-10T11:38:22.555Z,80.81
2023-01-10T11:40:56.268Z,80.68
2023-01-10T11:43:39.254Z,80.81
2023-01-10T11:46:21.550Z,80.74
2023-01-10T11:49:06.878Z,80.62
2023-01-10T11:51:52.296Z,80.79
2023-01-10T11:54:26.702Z,80.59
2023-01-10T11:57:02.165Z,80.46
2023-01-10T11:59:34.380Z,80.76
2023-01-10T12:02:16.808Z,80.64
2023-01-10T12:04:51.395Z,80.64
2023-01-10T12:07:23.597Z,80.30
2023-01-10T12:09:59.633Z,79.90
2023-01-10T12:12:36.823Z,80.03
2023-01-10T12:15:24.359Z,80.05
2023-01-10T12:18:02.872Z,80.27
2023-01-10T12:20:50.007Z,79.91
2023-01-10T12:23:25.705Z,80.08
2023-01-10T12:26:11.053Z,79.69
2023-01-10T12:28:58.807Z,80.16
2023-01-10T12:31:31.706Z,79.99
2023-01-10T12:34:15.704Z,80.07
2023-01-10T12:37:20.996Z,79.74
2023-01-10T12:40:15.972Z,79.56
2023-01-10T12:43:21.716Z,79.91
2023-01-10T12:46:29.562Z,79.75
2023-01-10T12:49:17.943Z,79.73
2023-01-10T12:51:53.634Z,79.62
2023-01-10T12:54:29.581Z,79.65
2023-01-10T12:57:23.815Z,80.21
2023-01-10T12:59:58.687Z,79.82
2023-01-10T13:02:40.555Z,79.69
2023-01-10T13:05:19.864Z,79.89
2023-01-10T13:07:54.916Z,79.62
2023-01-10T13:10:29.944Z,79.74
2023-01-10T13:13:10.417Z,79.73
2023-01-10T13:16:02.026Z,80.01
2023-01-10T13:18:35.185Z,79.34
2023-01-10T13:21:14.128Z,79.45
2023-01-10T13:23:55.693Z,78.98
2023-01-10T13:26:45.938Z,79.14
2023-01-10T13:29:44.510Z,79.21
2023-01-10T13:32:31.360Z,79.30
2023-01-10T13:35:18.413Z,79.07
2023-01-10T13:37:55.894Z,79.23
2023-01-10T13:40:31.200Z,78.78
2023-01-10T13:43:29.725Z,78.93
2023-01-10T13:46:16.907Z,78.76
2023-01-10T13:48:51.909Z,78.89
2023-01-10T13:51:23.896Z,78.50
2023-01-10T13:54:03.881Z,78.23
2023-01-10T13:56:40.034Z,78.38
2023-01-10T13:59:53.552Z,78.45
2023-01-10T14:02:30.047Z,78.36
2023-01-10T14:05:03.745Z,78.68
2023-01-10T14:07:51.378Z,78.54
2023-01-10T14:10:26.816Z,78.38
2023-01-10T14:13:09.619Z,78.53
2023-01-10T14:15:44.916Z,78.60
2023-01-10T14:18:27.680Z,78.36
2023-01-10T14:21:04.099Z,78.01
2023-01-10T14:23:39.136Z,77.98
2023-01-10T14:26:35.806Z,77.82
2023-01-10T14:29:14.080Z,77.65
2023-01-10T14:31:48.145Z,78.05
2023-01-10T14:34:31.624Z,77.59
2023-01-10T14:37:09.051Z,77.41
2023-01-10T14:39:43.162Z,77.80
2023-01-10T14:42:21.615Z,77.41
2023-01-10T14:45:29.758Z,77.42
2023-01-10T14:48:38.317Z,77.54
2023-01-10T14:51:30.640Z,77.51
2023-01-10T14:54:11.301Z,77.60
2023-01-10T14:56:46.213Z,77.62
2023-01-10T14:59:24.160Z,77.57
2023-01-10T15:01:59.423Z,77.94
2023-01-10T15:04:35.826Z,77.98
2023-01-10T15:07:13.298Z,78.26
2023-01-10T15:09:50.294Z,78.23
2023-01-10T15:12:23.787Z,78.27
2023-01-10T15:15:03.233Z,78.29
2023-01-10T15:17:37.803Z,78.11
2023-01-10T15:20:18.212Z,78.04
2023-01-10T15:23:01.876Z,77.96
2023-01-10T15:25:39.338Z,77.83
2023-01-10T15:28:16.302Z,78.38
2023-01-10T15:30:48.682Z,78.12
2023-01-10T15:33:29.644Z,77.82
2023-01-10T15:36:14.446Z,78.01
2023-01-10T15:38:48.090Z,77.74
2023-01-10T15:41:23.458Z,78.04
2023-01-10T15:43:55.881Z,77.82
2023-01-10T15:46:27.959Z,77.59
2023-01-10T15:49:04.797Z,77.88
2023-01-10T15:51:39.660Z,77.49
2023-01-10T15:54:20.744Z,77.84
2023-01-10T15:56:56.670Z,77.68
2023-01-10T15:59:37.282Z,77.82
2023-01-10T16:02:12.509Z,77.92
2023-01-10T16:04:46.803Z,77.73
2023-01-10T16:07:27.972Z,77.75
2023-01-10T16:10:13.413Z,77.85
2023-01-10T16:13:03.882Z,78.07
2023-01-10T16:15:41.250Z,77.59
2023-01-10T16:18:13.238Z,77.79
2023-01-10T16:20:47.613Z,77.52
2023-01-10T16:23:26.423Z,77.57
2023-01-10T16:26:00.771Z,77.77
2023-01-10T16:28:36.478Z,77.46
2023-01-10T16:31:14.820Z,77.28
2023-01-10T16:33:46.980Z,77.26
2023-01-10T16:36:21.334Z,76.91
2023-01-10T16:38:53.525Z,76.80
2023-01-10T16:41:43.856Z,76.83
2023-01-10T16:44:16.551Z,76.72
2023-01-10T16:46:48.761Z,76.54
2023-01-10T16:49:21.909Z,77.04
2023-01-10T16:51:54.430Z,76.90
2023-01-10T16:54:26.451Z,77.07
2023-01-10T16:56:58.485Z,77.03
2023-01-10T16:59:30.436Z,76.96
2023-01-10T17:02:02.801Z,77.26
2023-01-10T17:04:36.299Z,76.61
2023-01-10T17:07:10.315Z,76.82
2023-01-10T17:09:42.296Z,77.16
2023-01-10T17:12:19.783Z,76.99
2023-01-10T17:14:53.007Z,76.84
2023-01-10T17:17:25.119Z,76.75
2023-01-10T17:19:57.167Z,77.23
2023-01-10T17:22:32.494Z,77.09
2023-01-10T17:25:04.944Z,76.94
2023-01-10T17:27:37.027Z,76.78
2023-01-10T17:30:10.216Z,76.68
2023-01-10T17:32:42.415Z,77.03
2023-01-10T17:35:14.335Z,77.15
2023-01-10T17:37:49.338Z,77.36
2023-01-10T17:40:21.292Z,77.22
2023-01-10T17:42:53.262Z,76.85
2023-01-10T17:45:25.455Z,77.10
2023-01-10T17:47:57.544Z,77.02
2023-01-10T17:50:29.518Z,77.36
2023-01-10T17:53:01.812Z,77.22
2023-01-10T17:55:33.887Z,77.76
2023-01-10T17:58:06.025Z,77.88
2023-01-10T18:00:38.021Z,77.53
2023-01-10T18:03:10.450Z,77.70
2023-01-10T18:05:56.980Z,77.36
2023-01-10T18:08:28.907Z,77.50
2023-01-10T18:11:01.594Z,77.94
2023-01-10T18:13:33.616Z,77.61
2023-01-10T18:16:06.063Z,77.71
2023-01-10T18:18:38.064Z,78.14
2023-01-10T18:21:15.110Z,77.19
2023-01-10T18:23:50.234Z,77.39
2023-01-10T18:26:22.194Z,77.42
2023-01-10T18:28:54.590Z,76.94
2023-01-10T18:31:26.622Z,77.25
2023-01-10T18:33:58.665Z,77.20
2023-01-10T18:36:30.744Z,77.16
2023-01-10T18:39:05.699Z,77.00
2023-01-10T18:41:40.839Z,76.81
2023-01-10T18:44:12.879Z,76.86
2023-01-10T18:46:54.219Z,77.19
2023-01-10T18:49:26.411Z,77.48
2023-01-10T18:52:09.360Z,77.22
2023-01-10T18:54:43.880Z,77.20
2023-01-10T18:57:32.943Z,77.17
2023-01-10T19:00:11.217Z,77.35
2023-01-10T19:02:46.495Z,77.69
2023-01-10T19:05:21.467Z,77.42
2023-01-10T19:07:53.629Z,77.59
2023-01-10T19:10:25.812Z,77.88
2023-01-10T19:13:00.111Z,77.64
2023-01-10T19:15:32.128Z,77.57
2023-01-10T19:18:04.366Z,77.65
2023-01-10T19:20:38.833Z,77.67
2023-01-10T19:23:10.853Z,77.27
2023-01-10T19:25:48.787Z,77.62
2023-01-10T19:28:21.067Z,77.36
2023-01-10T19:31:03.580Z,77.61
2023-01-10T19:33:37.945Z,77.32
2023-01-10T19:36:12.865Z,77.40
2023-01-10T19:38:48.089Z,77.62
2023-01-10T19:41:20.030Z,77.56
2023-01-10T19:44:00.504Z,77.54
2023-01-10T19:46:34.255Z,77.36
2023-01-10T19:49:11.262Z,77.09
2023-01-10T19:51:51.488Z,76.85
2023-01-10T19:54:24.635Z,76.79
2023-01-10T19:56:57.095Z,77.19
2023-01-10T19:59:31.710Z,76.56
2023-01-10T20:02:04.629Z,76.77
2023-01-10T20:04:37.262Z,76.98
2023-01-10T20:07:09.804Z,76.98
2023-01-10T20:09:41.905Z,76.82
2023-01-10T20:12:15.336Z,77.07
2023-01-10T20:14:48.559Z,77.00
2023-01-10T20:17:20.851Z,76.93
2023-01-10T20:19:52.858Z,77.13
2023-01-10T20:22:24.973Z,77.04
2023-01-10T20:25:04.834Z,76.99
2023-01-10T20:27:39.482Z,77.25
2023-01-10T20:30:18.535Z,77.49
2023-01-10T20:33:10.808Z,77.73
2023-01-10T20:35:59.954Z,77.80
2023-01-10T20:38:35.682Z,77.67
2023-01-10T20:41:21.849Z,77.91
2023-01-10T20:44:05.422Z,77.96
2023-01-10T20:46:42.449Z,77.81
2023-01-10T20:49:18.746Z,77.61
2023-01-10T20:51:52.916Z,78.08
2023-01-10T20:54:27.523Z,78.14
2023-01-10T20:57:29.249Z,78.55
2023-01-10T21:00:04.286Z,77.85
2023-01-10T21:05:52.810Z,78.66
2023-01-10T21:08:25.273Z,78.60
2023-01-10T21:11:00.881Z,79.07
2023-01-10T21:13:35.290Z,80.03
2023-01-10T21:16:08.108Z,79.64
2023-01-10T21:18:41.550Z,79.74
2023-01-10T21:21:16.980Z,80.52
2023-01-10T21:23:49.065Z,80.66
2023-01-10T21:26:21.022Z,81.71
2023-01-10T21:28:52.968Z,81.60
2023-01-10T21:31:25.001Z,81.79
2023-01-10T21:33:57.013Z,81.30
2023-01-10T21:36:28.982Z,81.38
2023-01-10T21:39:00.990Z,81.30
2023-01-10T21:41:51.421Z,81.76
2023-01-10T21:44:26.096Z,82.03
2023-01-10T21:46:58.208Z,82.46
2023-01-10T21:49:30.312Z,81.96
2023-01-10T21:52:02.215Z,81.57
2023-01-10T21:54:34.215Z,81.35
2023-01-10T21:57:06.123Z,81.92
2023-01-10T21:59:41.234Z,81.65
2023-01-10T22:02:15.393Z,81.39
2023-01-10T22:04:49.049Z,81.89
2023-01-10T22:07:22.341Z,81.88
2023-01-10T22:09:55.309Z,81.67
2023-01-10T22:12:28.174Z,81.83
2023-01-10T22:15:00.264Z,81.85
2023-01-10T22:17:32.212Z,81.85
2023-01-10T22:20:04.994Z,81.41
2023-01-10T22:22:38.092Z,81.75
2023-01-10T22:25:10.511Z,81.69
2023-01-10T22:27:44.876Z,81.68
2023-01-10T22:30:17.480Z,81.82
2023-01-10T22:32:49.417Z,82.24
2023-01-10T22:35:21.627Z,81.96
2023-01-10T22:37:55.927Z,81.92
2023-01-10T22:40:27.860Z,81.84
2023-01-10T22:42:59.811Z,81.80
2023-01-10T22:45:32.115Z,81.38
2023-01-10T22:48:04.108Z,81.97
2023-01-10T22:50:36.543Z,81.70
2023-01-10T22:53:08.528Z,81.61
2023-01-10T22:55:40.459Z,81.23
2023-01-10T22:58:12.517Z,81.28
2023-01-10T23:00:44.518Z,80.97
2023-01-10T23:03:16.800Z,81.08
2023-01-10T23:05:48.754Z,81.29
2023-01-10T23:08:20.595Z,80.93
2023-01-10T23:10:54.485Z,81.12
2023-01-10T23:13:26.708Z,81.02
2023-01-10T23:16:11.414Z,81.42
2023-01-10T23:18:43.919Z,81.24
2023-01-10T23:21:16.446Z,81.00
2023-01-10T23:23:48.452Z,80.88
2023-01-10T23:26:20.424Z,80.93
2023-01-10T23:28:52.681Z,80.49
2023-01-10T23:31:29.525Z,80.43
2023-01-10T23:34:01.756Z,80.17
2023-01-10T23:36:33.762Z,81.34
2023-01-10T23:39:05.779Z,81.11
2023-01-10T23:41:37.696Z,81.29
2023-01-10T23:44:09.685Z,81.13
2023-01-10T23:46:41.634Z,81.12
2023-01-10T23:49:13.534Z,81.08
2023-01-10T23:51:45.441Z,81.54
2023-01-10T23:54:18.031Z,81.67
2023-01-10T23:56:52.663Z,81.83
2023-01-10T23:59:24.687Z,81.55
